Charbonneau, North Dakota
Current Conditions -  °F | °C
As of 1:35 PM on Thursday 18 Dec 2014 (Local Time) from KS25 Reporting Station
Overcast Overcast  
Wind Chill: 19°   Ceiling: 1000
Heat Index: 27°   Visibility: 9mi
Dew Point: 25°   Wind: 7mph
Humidity: 93%   Direction: 230°SW
Pressure: 29.94"   Gusts: NA
Location:  47.8581°N, 103.643°W
Report Text: KS25 181935Z AUTO 23006KT 9SM OVC010 M03/M04 A2994 RMK AO2
Loading
Personal Weather Stations






























Interactive Weather Map New forecast layout! Learn more

10-Day Weather Forecast

Advertisements
Track Severe Weather on mobile